Text Box: All records at near 07:00 local time
Kleivo 1 weather for Feb 2011
Month no. 51
Obs.
Da.
Temp. Dew Point Precip. Wind
Speed
Wind gusts Cloud cover Press. Humidity Wind dir. Sunny OPT
01.02.2011 4,8 2,2 10,2 8,0 9,7 0 988,1 90,0 135,0   45,0 %
02.02.2011 4,4 -0,7 0,5 8,0 0,0 2 992,2 89,0 112,5   57,5 %
03.02.2011 2,2 -1,6 2,0 12,9 9,7 5 981,4 90,0 270,0   60,0 %
04.02.2011 3,2 1,4 3,0 9,7 12,9 2 965,8 80,0 270,0   55,0 %
05.02.2011 1,5 -3,8 1,5 0,0 1,6 1 967,5 90,0     57,5 %
06.02.2011 3,8 -13,6 0,5 8,0 12,9 3 987,1 88,0 202,5   60,0 %
07.02.2011 3,8 -13,8 0,0 8,0 12,9 2 986,1 89,0 157,5   57,5 %
08.02.2011 0,9 -7,9 1,5 0,0 11,3 2 983,1 89,0     60,0 %
09.02.2011 -0,1 -9,2 0,0 9,7 27,4 7 1001,4 90,0 0,0   65,0 %
10.02.2011 3,1 -5,3 8,6 12,9 1,6 0 985,1 89,0 180,0   45,0 %
11.02.2011 -2,4 -5,2 0,0 0,0 14,5 6 985,8 90,0     67,5 %
12.02.2011 -3,6 -7,2 0,0 8,0 4,8 8 1005,4 46,0 135,0   65,0 %
13.02.2011 0,6 -9,8 0,0 12,9 0,0 3 993,9 33,0 135,0   55,0 %
14.02.2011 0,6 -9,0 0,0 19,3 4,8 0 993,9 53,0 180,0   42,5 %
15.02.2011 -1,6 -9,1 0,0 11,3 3,2 1 990,5 56,0 135,0   47,5 %
16.02.2011 -2,3 -11,2 0,0 0,0 16,1 0 988,1 80,0     52,5 %
17.02.2011 -1,1 -13,1 0,0 11,3 27,4 1 994,2 74,0 135,0   47,5 %
18.02.2011 -0,6 -2,7 0,0 3,2 22,5 2 1005,1 61,0 135,0   57,5 %
19.02.2011 -7,1 3,1 0,0 0,0 25,7 8 1008,5 81,0     70,0 %
20.02.2011 -6,9 3,8 0,0 3,2 12,9 9 1009,8 85,0 0,0   72,5 %
21.02.2011 -7,1 0,0 0,0 3,2 1,6 10 1008,8 86,0 0,0   75,0 %
22.02.2011 -4,4 -2,2 0,0 14,5 0,0 2 1006,8 59,0 67,5   47,5 %
23.02.2011 -4,7 -0,3 0,0 27,4 8,0 7 1006,4 52,0 135,0   50,0 %
24.02.2011 -0,2 -0,4 0,0 16,1 27,4 0 1000,7 83,0 112,5   42,5 %
25.02.2011 5,6 -0,2 0,0 29,0 4,8 1 999,7 84,0 135,0   45,0 %
26.02.2011 5,6 0,2 0,0 12,9 8,0 0 993,9 88,0 135,0   52,5 %
27.02.2011 1,6 -1,3 4,6 0,0 3,2 0 995,3 89,0     52,5 %
28.02.2011 -0,6 -7,3 0,5 0,0 0,0 10 1013,2 89,0     77,5 %
                       
                       
                       
Avrg/Sum 0,0 -4,4 32,9 8,9 10,2 3,3 994,2 77,6 131,8   56,5 %